sensor_id;sensor_type;location;lat;lon;timestamp;temperature;humidity
50570;DHT22;36525;49.398;7.614;2024-03-22T00:01:47;9.30;99.90
50570;DHT22;36525;49.398;7.614;2024-03-22T00:04:13;9.20;99.90
50570;DHT22;36525;49.398;7.614;2024-03-22T00:06:41;9.10;99.90
50570;DHT22;36525;49.398;7.614;2024-03-22T00:09:08;9.10;99.90
50570;DHT22;36525;49.398;7.614;2024-03-22T00:11:34;9.00;99.90
50570;DHT22;36525;49.398;7.614;2024-03-22T00:14:01;8.90;99.90
50570;DHT22;36525;49.398;7.614;2024-03-22T00:16:27;8.90;99.90
50570;DHT22;36525;49.398;7.614;2024-03-22T00:18:53;8.80;99.90
50570;DHT22;36525;49.398;7.614;2024-03-22T00:21:20;8.90;99.90
50570;DHT22;36525;49.398;7.614;2024-03-22T00:23:47;9.00;99.90
50570;DHT22;36525;49.398;7.614;2024-03-22T00:26:13;8.90;99.90
50570;DHT22;36525;49.398;7.614;2024-03-22T00:28:38;8.90;99.90
50570;DHT22;36525;49.398;7.614;2024-03-22T00:31:04;8.90;99.90
50570;DHT22;36525;49.398;7.614;2024-03-22T00:33:30;8.90;99.90
50570;DHT22;36525;49.398;7.614;2024-03-22T00:35:57;9.00;99.90
50570;DHT22;36525;49.398;7.614;2024-03-22T00:38:23;9.00;99.90
50570;DHT22;36525;49.398;7.614;2024-03-22T00:40:49;9.10;99.90
50570;DHT22;36525;49.398;7.614;2024-03-22T00:43:15;9.00;99.90
50570;DHT22;36525;49.398;7.614;2024-03-22T00:45:40;9.00;99.90
50570;DHT22;36525;49.398;7.614;2024-03-22T00:48:06;8.80;99.90
50570;DHT22;36525;49.398;7.614;2024-03-22T00:50:32;8.70;99.90
50570;DHT22;36525;49.398;7.614;2024-03-22T00:52:58;8.60;99.90
50570;DHT22;36525;49.398;7.614;2024-03-22T00:55:24;8.50;99.90
50570;DHT22;36525;49.398;7.614;2024-03-22T00:57:51;8.40;99.90
50570;DHT22;36525;49.398;7.614;2024-03-22T01:00:17;8.40;99.90
50570;DHT22;36525;49.398;7.614;2024-03-22T01:02:43;8.40;99.90
50570;DHT22;36525;49.398;7.614;2024-03-22T01:05:09;8.50;99.90
50570;DHT22;36525;49.398;7.614;2024-03-22T01:07:35;8.40;99.90
50570;DHT22;36525;49.398;7.614;2024-03-22T01:10:02;8.40;99.90
50570;DHT22;36525;49.398;7.614;2024-03-22T01:12:30;8.50;99.90
50570;DHT22;36525;49.398;7.614;2024-03-22T01:14:56;8.40;99.90
50570;DHT22;36525;49.398;7.614;2024-03-22T01:17:22;8.50;99.90
50570;DHT22;36525;49.398;7.614;2024-03-22T01:19:48;8.50;99.90
50570;DHT22;36525;49.398;7.614;2024-03-22T01:22:14;8.60;99.90
50570;DHT22;36525;49.398;7.614;2024-03-22T01:24:40;8.70;99.90
50570;DHT22;36525;49.398;7.614;2024-03-22T01:27:06;8.80;99.90
50570;DHT22;36525;49.398;7.614;2024-03-22T01:29:31;8.80;99.90
50570;DHT22;36525;49.398;7.614;2024-03-22T01:31:57;8.80;99.90
50570;DHT22;36525;49.398;7.614;2024-03-22T01:34:24;8.80;99.90
50570;DHT22;36525;49.398;7.614;2024-03-22T01:36:50;8.70;99.90
50570;DHT22;36525;49.398;7.614;2024-03-22T01:39:16;8.60;99.90
50570;DHT22;36525;49.398;7.614;2024-03-22T01:41:50;8.50;99.90
50570;DHT22;36525;49.398;7.614;2024-03-22T01:44:16;8.50;99.90
50570;DHT22;36525;49.398;7.614;2024-03-22T01:46:43;8.50;99.90
50570;DHT22;36525;49.398;7.614;2024-03-22T01:49:10;8.50;99.90
50570;DHT22;36525;49.398;7.614;2024-03-22T01:51:40;8.40;99.90
50570;DHT22;36525;49.398;7.614;2024-03-22T01:54:07;8.40;99.90
50570;DHT22;36525;49.398;7.614;2024-03-22T01:56:35;8.30;99.90
50570;DHT22;36525;49.398;7.614;2024-03-22T01:59:03;8.30;99.90
50570;DHT22;36525;49.398;7.614;2024-03-22T02:01:29;8.30;99.90
50570;DHT22;36525;49.398;7.614;2024-03-22T02:03:55;8.40;99.90
50570;DHT22;36525;49.398;7.614;2024-03-22T02:06:21;8.40;99.90
50570;DHT22;36525;49.398;7.614;2024-03-22T02:08:47;8.50;99.90
50570;DHT22;36525;49.398;7.614;2024-03-22T02:11:13;8.70;99.90
50570;DHT22;36525;49.398;7.614;2024-03-22T02:13:39;8.80;99.90
50570;DHT22;36525;49.398;7.614;2024-03-22T02:16:05;8.80;99.90
50570;DHT22;36525;49.398;7.614;2024-03-22T02:18:31;8.90;99.90
50570;DHT22;36525;49.398;7.614;2024-03-22T02:20:57;8.90;99.90
50570;DHT22;36525;49.398;7.614;2024-03-22T02:23:42;8.90;99.90
50570;DHT22;36525;49.398;7.614;2024-03-22T02:26:07;9.00;99.90
50570;DHT22;36525;49.398;7.614;2024-03-22T02:28:34;8.90;99.90
50570;DHT22;36525;49.398;7.614;2024-03-22T02:31:01;8.70;99.90
50570;DHT22;36525;49.398;7.614;2024-03-22T02:33:28;8.60;99.90
50570;DHT22;36525;49.398;7.614;2024-03-22T02:35:54;8.60;99.90
50570;DHT22;36525;49.398;7.614;2024-03-22T02:38:20;8.60;99.90
50570;DHT22;36525;49.398;7.614;2024-03-22T02:40:46;8.40;99.90
50570;DHT22;36525;49.398;7.614;2024-03-22T02:43:13;8.40;99.90
50570;DHT22;36525;49.398;7.614;2024-03-22T02:45:39;8.30;99.90
50570;DHT22;36525;49.398;7.614;2024-03-22T02:48:05;8.30;99.90
50570;DHT22;36525;49.398;7.614;2024-03-22T02:50:36;8.30;99.90
50570;DHT22;36525;49.398;7.614;2024-03-22T02:53:02;8.30;99.90
50570;DHT22;36525;49.398;7.614;2024-03-22T02:55:29;8.20;99.90
50570;DHT22;36525;49.398;7.614;2024-03-22T02:57:58;8.20;99.90
50570;DHT22;36525;49.398;7.614;2024-03-22T03:00:24;8.20;99.90
50570;DHT22;36525;49.398;7.614;2024-03-22T03:02:50;8.30;99.90
50570;DHT22;36525;49.398;7.614;2024-03-22T03:05:16;8.30;99.90
50570;DHT22;36525;49.398;7.614;2024-03-22T03:07:41;8.40;99.90
50570;DHT22;36525;49.398;7.614;2024-03-22T03:10:07;8.40;99.90
50570;DHT22;36525;49.398;7.614;2024-03-22T03:12:33;8.50;99.90
50570;DHT22;36525;49.398;7.614;2024-03-22T03:14:59;8.50;99.90
50570;DHT22;36525;49.398;7.614;2024-03-22T03:17:25;8.60;99.90
50570;DHT22;36525;49.398;7.614;2024-03-22T03:19:51;8.70;99.90
50570;DHT22;36525;49.398;7.614;2024-03-22T03:22:16;8.70;99.90
50570;DHT22;36525;49.398;7.614;2024-03-22T03:24:43;8.80;99.90
50570;DHT22;36525;49.398;7.614;2024-03-22T03:27:09;8.80;99.90
50570;DHT22;36525;49.398;7.614;2024-03-22T03:29:35;8.80;99.90
50570;DHT22;36525;49.398;7.614;2024-03-22T03:32:01;8.80;99.90
50570;DHT22;36525;49.398;7.614;2024-03-22T03:34:27;8.90;99.90
50570;DHT22;36525;49.398;7.614;2024-03-22T03:36:53;8.90;99.90
50570;DHT22;36525;49.398;7.614;2024-03-22T03:39:19;8.90;99.90
50570;DHT22;36525;49.398;7.614;2024-03-22T03:41:45;8.80;99.90
50570;DHT22;36525;49.398;7.614;2024-03-22T03:44:11;8.70;99.90
50570;DHT22;36525;49.398;7.614;2024-03-22T03:46:36;8.50;99.90
50570;DHT22;36525;49.398;7.614;2024-03-22T03:49:02;8.40;99.90
50570;DHT22;36525;49.398;7.614;2024-03-22T03:51:28;8.30;99.90
50570;DHT22;36525;49.398;7.614;2024-03-22T03:53:54;8.30;99.90
50570;DHT22;36525;49.398;7.614;2024-03-22T03:56:19;8.40;99.90
50570;DHT22;36525;49.398;7.614;2024-03-22T03:58:46;8.40;99.90
50570;DHT22;36525;49.398;7.614;2024-03-22T04:01:12;8.30;99.90
50570;DHT22;36525;49.398;7.614;2024-03-22T04:03:38;8.20;99.90
50570;DHT22;36525;49.398;7.614;2024-03-22T04:06:04;8.20;99.90
50570;DHT22;36525;49.398;7.614;2024-03-22T04:08:30;8.10;99.90
50570;DHT22;36525;49.398;7.614;2024-03-22T04:10:57;8.10;99.90
50570;DHT22;36525;49.398;7.614;2024-03-22T04:13:23;8.20;99.90
50570;DHT22;36525;49.398;7.614;2024-03-22T04:15:50;8.10;99.90
50570;DHT22;36525;49.398;7.614;2024-03-22T04:18:15;8.10;99.90
50570;DHT22;36525;49.398;7.614;2024-03-22T04:20:42;8.20;99.90
50570;DHT22;36525;49.398;7.614;2024-03-22T04:23:09;8.10;99.90
50570;DHT22;36525;49.398;7.614;2024-03-22T04:25:35;8.10;99.90
50570;DHT22;36525;49.398;7.614;2024-03-22T04:28:01;8.10;99.90
50570;DHT22;36525;49.398;7.614;2024-03-22T04:30:27;8.10;99.90
50570;DHT22;36525;49.398;7.614;2024-03-22T04:32:53;8.10;99.90
50570;DHT22;36525;49.398;7.614;2024-03-22T04:35:19;8.20;99.90
50570;DHT22;36525;49.398;7.614;2024-03-22T04:37:45;8.30;99.90
50570;DHT22;36525;49.398;7.614;2024-03-22T04:40:10;8.20;99.90
50570;DHT22;36525;49.398;7.614;2024-03-22T04:42:37;8.00;99.90
50570;DHT22;36525;49.398;7.614;2024-03-22T04:45:03;8.10;99.90
50570;DHT22;36525;49.398;7.614;2024-03-22T04:47:29;8.10;99.90
50570;DHT22;36525;49.398;7.614;2024-03-22T04:49:54;8.10;99.90
50570;DHT22;36525;49.398;7.614;2024-03-22T04:52:20;8.20;99.90
50570;DHT22;36525;49.398;7.614;2024-03-22T04:54:46;8.30;99.90
50570;DHT22;36525;49.398;7.614;2024-03-22T04:57:13;8.40;99.90
50570;DHT22;36525;49.398;7.614;2024-03-22T04:59:39;8.40;99.90
50570;DHT22;36525;49.398;7.614;2024-03-22T05:02:06;8.50;99.90
50570;DHT22;36525;49.398;7.614;2024-03-22T05:04:31;8.60;99.90
50570;DHT22;36525;49.398;7.614;2024-03-22T05:06:57;8.50;99.90
50570;DHT22;36525;49.398;7.614;2024-03-22T05:09:23;8.60;99.90
50570;DHT22;36525;49.398;7.614;2024-03-22T05:11:49;8.60;99.90
50570;DHT22;36525;49.398;7.614;2024-03-22T05:14:17;8.50;99.90
50570;DHT22;36525;49.398;7.614;2024-03-22T05:16:44;8.50;99.90
50570;DHT22;36525;49.398;7.614;2024-03-22T05:19:10;8.50;99.90
50570;DHT22;36525;49.398;7.614;2024-03-22T05:21:36;8.50;99.90
50570;DHT22;36525;49.398;7.614;2024-03-22T05:24:02;8.40;99.90
50570;DHT22;36525;49.398;7.614;2024-03-22T05:26:28;8.40;99.90
50570;DHT22;36525;49.398;7.614;2024-03-22T05:28:57;8.40;99.90
50570;DHT22;36525;49.398;7.614;2024-03-22T05:31:23;8.30;99.90
50570;DHT22;36525;49.398;7.614;2024-03-22T05:33:49;8.40;99.90
50570;DHT22;36525;49.398;7.614;2024-03-22T05:36:15;8.40;99.90
50570;DHT22;36525;49.398;7.614;2024-03-22T05:38:40;8.40;99.90
50570;DHT22;36525;49.398;7.614;2024-03-22T05:41:06;8.30;99.90
50570;DHT22;36525;49.398;7.614;2024-03-22T05:43:32;8.30;99.90
50570;DHT22;36525;49.398;7.614;2024-03-22T05:45:58;8.30;99.90
50570;DHT22;36525;49.398;7.614;2024-03-22T05:48:24;8.30;99.90
50570;DHT22;36525;49.398;7.614;2024-03-22T05:50:50;8.20;99.90
50570;DHT22;36525;49.398;7.614;2024-03-22T05:53:16;8.00;99.90
50570;DHT22;36525;49.398;7.614;2024-03-22T05:55:42;7.90;99.90
50570;DHT22;36525;49.398;7.614;2024-03-22T05:58:08;8.10;99.90
50570;DHT22;36525;49.398;7.614;2024-03-22T06:00:34;8.20;99.90
50570;DHT22;36525;49.398;7.614;2024-03-22T06:03:00;8.20;99.90
50570;DHT22;36525;49.398;7.614;2024-03-22T06:05:26;8.20;99.90
50570;DHT22;36525;49.398;7.614;2024-03-22T06:07:52;8.30;99.90
50570;DHT22;36525;49.398;7.614;2024-03-22T06:10:19;8.40;99.90
50570;DHT22;36525;49.398;7.614;2024-03-22T06:12:45;8.50;99.90
50570;DHT22;36525;49.398;7.614;2024-03-22T06:15:12;8.60;99.90
50570;DHT22;36525;49.398;7.614;2024-03-22T06:17:38;8.60;99.90
50570;DHT22;36525;49.398;7.614;2024-03-22T06:20:04;8.70;99.90
50570;DHT22;36525;49.398;7.614;2024-03-22T06:22:31;8.80;99.90
50570;DHT22;36525;49.398;7.614;2024-03-22T06:24:56;8.90;99.90
50570;DHT22;36525;49.398;7.614;2024-03-22T06:27:22;8.90;99.90
50570;DHT22;36525;49.398;7.614;2024-03-22T06:29:48;9.00;99.90
50570;DHT22;36525;49.398;7.614;2024-03-22T06:32:14;8.90;99.90
50570;DHT22;36525;49.398;7.614;2024-03-22T06:34:40;9.00;99.90
50570;DHT22;36525;49.398;7.614;2024-03-22T06:37:06;9.10;99.90
50570;DHT22;36525;49.398;7.614;2024-03-22T06:39:32;9.10;99.90
50570;DHT22;36525;49.398;7.614;2024-03-22T06:41:58;9.20;99.90
50570;DHT22;36525;49.398;7.614;2024-03-22T06:44:23;9.30;99.90
50570;DHT22;36525;49.398;7.614;2024-03-22T06:46:49;9.30;99.90
50570;DHT22;36525;49.398;7.614;2024-03-22T06:49:15;9.40;99.90
50570;DHT22;36525;49.398;7.614;2024-03-22T06:51:41;9.50;99.90
50570;DHT22;36525;49.398;7.614;2024-03-22T06:54:07;9.60;99.90
50570;DHT22;36525;49.398;7.614;2024-03-22T06:56:33;9.60;99.90
50570;DHT22;36525;49.398;7.614;2024-03-22T06:58:59;9.60;99.90
50570;DHT22;36525;49.398;7.614;2024-03-22T07:01:25;9.70;99.90
50570;DHT22;36525;49.398;7.614;2024-03-22T07:03:51;9.80;99.90
50570;DHT22;36525;49.398;7.614;2024-03-22T07:06:18;9.80;99.90
50570;DHT22;36525;49.398;7.614;2024-03-22T07:08:44;9.90;99.90
50570;DHT22;36525;49.398;7.614;2024-03-22T07:11:10;9.90;99.90
50570;DHT22;36525;49.398;7.614;2024-03-22T07:13:36;9.90;99.90
50570;DHT22;36525;49.398;7.614;2024-03-22T07:16:02;9.90;99.90
50570;DHT22;36525;49.398;7.614;2024-03-22T07:18:29;10.00;99.90
50570;DHT22;36525;49.398;7.614;2024-03-22T07:20:55;9.90;99.90
50570;DHT22;36525;49.398;7.614;2024-03-22T07:23:23;10.00;99.90
50570;DHT22;36525;49.398;7.614;2024-03-22T07:25:49;9.90;99.90
50570;DHT22;36525;49.398;7.614;2024-03-22T07:28:15;9.90;99.90
50570;DHT22;36525;49.398;7.614;2024-03-22T07:30:41;10.00;99.90
50570;DHT22;36525;49.398;7.614;2024-03-22T07:33:07;10.00;99.90
50570;DHT22;36525;49.398;7.614;2024-03-22T07:35:36;10.00;99.90
50570;DHT22;36525;49.398;7.614;2024-03-22T07:38:02;10.10;99.90
50570;DHT22;36525;49.398;7.614;2024-03-22T07:40:29;10.00;99.90
50570;DHT22;36525;49.398;7.614;2024-03-22T07:42:55;10.10;99.90
50570;DHT22;36525;49.398;7.614;2024-03-22T07:45:21;10.20;99.90
50570;DHT22;36525;49.398;7.614;2024-03-22T07:47:47;10.10;99.90
50570;DHT22;36525;49.398;7.614;2024-03-22T07:50:14;10.10;99.90
50570;DHT22;36525;49.398;7.614;2024-03-22T07:52:39;10.20;99.90
50570;DHT22;36525;49.398;7.614;2024-03-22T07:55:05;10.30;99.90
50570;DHT22;36525;49.398;7.614;2024-03-22T07:57:32;10.40;99.90
50570;DHT22;36525;49.398;7.614;2024-03-22T07:59:57;10.40;99.90
50570;DHT22;36525;49.398;7.614;2024-03-22T08:02:23;10.50;99.90
50570;DHT22;36525;49.398;7.614;2024-03-22T08:04:49;10.60;99.90
50570;DHT22;36525;49.398;7.614;2024-03-22T08:07:15;10.60;99.90
50570;DHT22;36525;49.398;7.614;2024-03-22T08:09:41;10.60;99.90
50570;DHT22;36525;49.398;7.614;2024-03-22T08:12:07;10.50;99.90
50570;DHT22;36525;49.398;7.614;2024-03-22T08:14:33;10.50;99.90
50570;DHT22;36525;49.398;7.614;2024-03-22T08:16:59;10.60;99.90
50570;DHT22;36525;49.398;7.614;2024-03-22T08:19:24;10.50;99.90
50570;DHT22;36525;49.398;7.614;2024-03-22T08:21:51;10.50;99.90
50570;DHT22;36525;49.398;7.614;2024-03-22T08:24:18;10.50;99.90
50570;DHT22;36525;49.398;7.614;2024-03-22T08:26:44;10.50;99.90
50570;DHT22;36525;49.398;7.614;2024-03-22T08:29:15;10.60;99.90
50570;DHT22;36525;49.398;7.614;2024-03-22T08:31:41;10.70;99.90
50570;DHT22;36525;49.398;7.614;2024-03-22T08:34:07;10.80;99.90
50570;DHT22;36525;49.398;7.614;2024-03-22T08:36:34;10.90;99.90
50570;DHT22;36525;49.398;7.614;2024-03-22T08:39:00;11.00;99.90
50570;DHT22;36525;49.398;7.614;2024-03-22T08:41:25;11.00;99.90
50570;DHT22;36525;49.398;7.614;2024-03-22T08:43:51;11.00;99.90
50570;DHT22;36525;49.398;7.614;2024-03-22T08:46:17;11.00;99.90
50570;DHT22;36525;49.398;7.614;2024-03-22T08:48:43;11.10;99.90
50570;DHT22;36525;49.398;7.614;2024-03-22T08:51:09;11.10;99.90
50570;DHT22;36525;49.398;7.614;2024-03-22T08:53:35;11.30;99.90
50570;DHT22;36525;49.398;7.614;2024-03-22T08:56:00;11.20;99.90
50570;DHT22;36525;49.398;7.614;2024-03-22T08:58:26;11.30;99.90
50570;DHT22;36525;49.398;7.614;2024-03-22T09:00:52;11.30;99.90
50570;DHT22;36525;49.398;7.614;2024-03-22T09:03:18;11.30;99.90
50570;DHT22;36525;49.398;7.614;2024-03-22T09:05:46;11.30;99.90
50570;DHT22;36525;49.398;7.614;2024-03-22T09:08:12;11.20;99.90
50570;DHT22;36525;49.398;7.614;2024-03-22T09:10:38;11.30;99.90
50570;DHT22;36525;49.398;7.614;2024-03-22T09:13:04;11.50;99.90
50570;DHT22;36525;49.398;7.614;2024-03-22T09:15:30;11.60;99.90
50570;DHT22;36525;49.398;7.614;2024-03-22T09:17:56;11.70;99.90
50570;DHT22;36525;49.398;7.614;2024-03-22T09:20:22;11.90;99.90
50570;DHT22;36525;49.398;7.614;2024-03-22T09:22:48;11.90;99.90
50570;DHT22;36525;49.398;7.614;2024-03-22T09:25:14;11.90;99.90
50570;DHT22;36525;49.398;7.614;2024-03-22T09:27:40;12.00;99.90
50570;DHT22;36525;49.398;7.614;2024-03-22T09:30:06;12.00;99.90
50570;DHT22;36525;49.398;7.614;2024-03-22T09:32:32;12.10;99.90
50570;DHT22;36525;49.398;7.614;2024-03-22T09:34:58;12.10;99.90
50570;DHT22;36525;49.398;7.614;2024-03-22T09:37:24;12.00;99.90
50570;DHT22;36525;49.398;7.614;2024-03-22T09:39:50;12.10;99.90
50570;DHT22;36525;49.398;7.614;2024-03-22T09:42:16;12.10;99.90
50570;DHT22;36525;49.398;7.614;2024-03-22T09:44:49;12.10;99.90
50570;DHT22;36525;49.398;7.614;2024-03-22T09:47:16;12.20;99.90
50570;DHT22;36525;49.398;7.614;2024-03-22T09:49:43;12.40;99.90
50570;DHT22;36525;49.398;7.614;2024-03-22T09:52:14;12.50;99.90
50570;DHT22;36525;49.398;7.614;2024-03-22T09:54:44;12.60;99.90
50570;DHT22;36525;49.398;7.614;2024-03-22T09:57:11;12.60;99.90
50570;DHT22;36525;49.398;7.614;2024-03-22T09:59:47;12.60;99.90
50570;DHT22;36525;49.398;7.614;2024-03-22T10:02:13;12.70;99.90
50570;DHT22;36525;49.398;7.614;2024-03-22T10:04:40;12.60;99.90
50570;DHT22;36525;49.398;7.614;2024-03-22T10:07:06;12.60;99.90
50570;DHT22;36525;49.398;7.614;2024-03-22T10:09:33;12.70;99.90
50570;DHT22;36525;49.398;7.614;2024-03-22T10:11:59;12.70;99.90
50570;DHT22;36525;49.398;7.614;2024-03-22T10:14:25;13.00;99.90
50570;DHT22;36525;49.398;7.614;2024-03-22T10:16:52;13.10;99.90
50570;DHT22;36525;49.398;7.614;2024-03-22T10:19:20;13.20;99.90
50570;DHT22;36525;49.398;7.614;2024-03-22T10:21:47;13.50;99.90
50570;DHT22;36525;49.398;7.614;2024-03-22T10:24:14;13.70;99.90
50570;DHT22;36525;49.398;7.614;2024-03-22T10:26:39;14.00;99.90
50570;DHT22;36525;49.398;7.614;2024-03-22T10:29:06;14.30;99.90
50570;DHT22;36525;49.398;7.614;2024-03-22T10:31:33;14.50;99.90
50570;DHT22;36525;49.398;7.614;2024-03-22T10:34:01;14.30;99.90
50570;DHT22;36525;49.398;7.614;2024-03-22T10:36:30;14.50;99.90
50570;DHT22;36525;49.398;7.614;2024-03-22T10:38:57;14.50;99.90
50570;DHT22;36525;49.398;7.614;2024-03-22T10:41:25;14.40;99.90
50570;DHT22;36525;49.398;7.614;2024-03-22T10:43:52;14.40;99.90
50570;DHT22;36525;49.398;7.614;2024-03-22T10:46:19;14.50;99.90
50570;DHT22;36525;49.398;7.614;2024-03-22T10:48:46;14.40;99.90
50570;DHT22;36525;49.398;7.614;2024-03-22T10:51:11;14.50;99.90
50570;DHT22;36525;49.398;7.614;2024-03-22T10:53:38;14.60;99.90
50570;DHT22;36525;49.398;7.614;2024-03-22T10:56:05;14.70;99.90
50570;DHT22;36525;49.398;7.614;2024-03-22T10:58:31;14.80;99.90
50570;DHT22;36525;49.398;7.614;2024-03-22T11:00:57;14.80;99.90
50570;DHT22;36525;49.398;7.614;2024-03-22T11:03:24;14.80;99.90
50570;DHT22;36525;49.398;7.614;2024-03-22T11:05:53;14.80;99.90
50570;DHT22;36525;49.398;7.614;2024-03-22T11:08:27;14.80;99.90
50570;DHT22;36525;49.398;7.614;2024-03-22T11:10:53;14.90;99.90
50570;DHT22;36525;49.398;7.614;2024-03-22T11:13:19;15.20;99.90
50570;DHT22;36525;49.398;7.614;2024-03-22T11:15:49;15.40;99.90
50570;DHT22;36525;49.398;7.614;2024-03-22T11:18:16;15.50;99.90
50570;DHT22;36525;49.398;7.614;2024-03-22T11:20:42;15.50;99.90
50570;DHT22;36525;49.398;7.614;2024-03-22T11:23:10;15.70;99.90
50570;DHT22;36525;49.398;7.614;2024-03-22T11:25:36;15.80;99.90
50570;DHT22;36525;49.398;7.614;2024-03-22T11:28:02;15.90;99.90
50570;DHT22;36525;49.398;7.614;2024-03-22T11:30:28;16.10;99.90
50570;DHT22;36525;49.398;7.614;2024-03-22T11:32:55;16.10;99.90
50570;DHT22;36525;49.398;7.614;2024-03-22T11:35:21;16.30;99.90
50570;DHT22;36525;49.398;7.614;2024-03-22T11:37:47;16.50;99.90
50570;DHT22;36525;49.398;7.614;2024-03-22T11:40:14;16.40;99.90
50570;DHT22;36525;49.398;7.614;2024-03-22T11:42:47;16.40;99.90
50570;DHT22;36525;49.398;7.614;2024-03-22T11:45:15;16.10;99.90
50570;DHT22;36525;49.398;7.614;2024-03-22T11:47:41;15.90;99.90
50570;DHT22;36525;49.398;7.614;2024-03-22T11:50:08;15.90;99.90
50570;DHT22;36525;49.398;7.614;2024-03-22T11:52:34;15.80;99.90
50570;DHT22;36525;49.398;7.614;2024-03-22T11:55:00;16.20;99.90
50570;DHT22;36525;49.398;7.614;2024-03-22T11:57:27;16.30;99.90
50570;DHT22;36525;49.398;7.614;2024-03-22T11:59:58;16.50;99.90
50570;DHT22;36525;49.398;7.614;2024-03-22T12:02:25;16.50;99.90
50570;DHT22;36525;49.398;7.614;2024-03-22T12:04:51;16.50;99.90
50570;DHT22;36525;49.398;7.614;2024-03-22T12:07:17;16.50;99.90
50570;DHT22;36525;49.398;7.614;2024-03-22T12:09:46;16.50;99.90
50570;DHT22;36525;49.398;7.614;2024-03-22T12:12:12;16.80;99.90
50570;DHT22;36525;49.398;7.614;2024-03-22T12:14:39;16.90;99.90
50570;DHT22;36525;49.398;7.614;2024-03-22T12:17:05;16.90;99.90
50570;DHT22;36525;49.398;7.614;2024-03-22T12:19:32;17.00;99.90
50570;DHT22;36525;49.398;7.614;2024-03-22T12:21:58;17.00;99.90
50570;DHT22;36525;49.398;7.614;2024-03-22T12:24:24;17.00;99.90
50570;DHT22;36525;49.398;7.614;2024-03-22T12:26:50;16.90;99.90
50570;DHT22;36525;49.398;7.614;2024-03-22T12:29:16;16.80;99.90
50570;DHT22;36525;49.398;7.614;2024-03-22T12:31:42;16.80;99.90
50570;DHT22;36525;49.398;7.614;2024-03-22T12:34:08;16.90;99.90
50570;DHT22;36525;49.398;7.614;2024-03-22T12:36:34;16.90;99.90
50570;DHT22;36525;49.398;7.614;2024-03-22T12:39:00;16.90;99.90
50570;DHT22;36525;49.398;7.614;2024-03-22T12:41:27;17.00;99.90
50570;DHT22;36525;49.398;7.614;2024-03-22T12:43:55;17.20;99.90
50570;DHT22;36525;49.398;7.614;2024-03-22T12:46:21;17.30;99.90
50570;DHT22;36525;49.398;7.614;2024-03-22T12:48:47;17.40;99.90
50570;DHT22;36525;49.398;7.614;2024-03-22T12:51:13;17.30;99.90
50570;DHT22;36525;49.398;7.614;2024-03-22T12:53:39;17.20;99.90
50570;DHT22;36525;49.398;7.614;2024-03-22T12:56:05;16.90;99.90
50570;DHT22;36525;49.398;7.614;2024-03-22T12:58:31;17.10;99.90
50570;DHT22;36525;49.398;7.614;2024-03-22T13:00:57;17.00;99.90
50570;DHT22;36525;49.398;7.614;2024-03-22T13:03:25;16.90;99.90
50570;DHT22;36525;49.398;7.614;2024-03-22T13:05:51;16.80;99.90
50570;DHT22;36525;49.398;7.614;2024-03-22T13:08:17;16.80;99.90
50570;DHT22;36525;49.398;7.614;2024-03-22T13:10:44;16.80;99.90
50570;DHT22;36525;49.398;7.614;2024-03-22T13:13:11;16.80;99.90
50570;DHT22;36525;49.398;7.614;2024-03-22T13:15:37;16.90;99.90
50570;DHT22;36525;49.398;7.614;2024-03-22T13:18:03;16.80;99.90
50570;DHT22;36525;49.398;7.614;2024-03-22T13:20:29;16.90;99.90
50570;DHT22;36525;49.398;7.614;2024-03-22T13:22:56;17.00;99.90
50570;DHT22;36525;49.398;7.614;2024-03-22T13:25:22;17.00;99.90
50570;DHT22;36525;49.398;7.614;2024-03-22T13:27:48;17.20;99.90
50570;DHT22;36525;49.398;7.614;2024-03-22T13:30:14;17.00;99.90
50570;DHT22;36525;49.398;7.614;2024-03-22T13:32:40;17.10;99.90
50570;DHT22;36525;49.398;7.614;2024-03-22T13:35:06;17.10;99.90
50570;DHT22;36525;49.398;7.614;2024-03-22T13:37:32;17.20;99.90
50570;DHT22;36525;49.398;7.614;2024-03-22T13:39:59;17.10;99.90
50570;DHT22;36525;49.398;7.614;2024-03-22T13:42:25;17.10;99.90
50570;DHT22;36525;49.398;7.614;2024-03-22T13:44:52;17.00;99.90
50570;DHT22;36525;49.398;7.614;2024-03-22T13:47:17;17.00;99.90
50570;DHT22;36525;49.398;7.614;2024-03-22T13:49:44;16.90;99.90
50570;DHT22;36525;49.398;7.614;2024-03-22T13:52:10;16.70;99.90
50570;DHT22;36525;49.398;7.614;2024-03-22T13:54:36;16.60;99.90
50570;DHT22;36525;49.398;7.614;2024-03-22T13:57:02;16.60;99.90
50570;DHT22;36525;49.398;7.614;2024-03-22T13:59:28;16.70;99.90
50570;DHT22;36525;49.398;7.614;2024-03-22T14:01:55;16.60;99.90
50570;DHT22;36525;49.398;7.614;2024-03-22T14:04:22;16.60;99.90
50570;DHT22;36525;49.398;7.614;2024-03-22T14:06:49;16.40;99.90
50570;DHT22;36525;49.398;7.614;2024-03-22T14:09:15;16.40;99.90
50570;DHT22;36525;49.398;7.614;2024-03-22T14:11:41;16.40;99.90
50570;DHT22;36525;49.398;7.614;2024-03-22T14:14:09;16.30;99.90
50570;DHT22;36525;49.398;7.614;2024-03-22T14:16:37;16.40;99.90
50570;DHT22;36525;49.398;7.614;2024-03-22T14:19:03;16.50;99.90
50570;DHT22;36525;49.398;7.614;2024-03-22T14:21:29;16.60;99.90
50570;DHT22;36525;49.398;7.614;2024-03-22T14:23:55;16.70;99.90
50570;DHT22;36525;49.398;7.614;2024-03-22T14:26:21;16.60;99.90
50570;DHT22;36525;49.398;7.614;2024-03-22T14:28:46;16.70;99.90
50570;DHT22;36525;49.398;7.614;2024-03-22T14:31:13;16.80;99.90
50570;DHT22;36525;49.398;7.614;2024-03-22T14:33:39;16.90;99.90
50570;DHT22;36525;49.398;7.614;2024-03-22T14:36:06;16.80;99.90
50570;DHT22;36525;49.398;7.614;2024-03-22T14:38:33;16.70;99.90
50570;DHT22;36525;49.398;7.614;2024-03-22T14:40:59;16.80;99.90
50570;DHT22;36525;49.398;7.614;2024-03-22T14:43:25;16.90;99.90
50570;DHT22;36525;49.398;7.614;2024-03-22T14:45:52;16.80;99.90
50570;DHT22;36525;49.398;7.614;2024-03-22T14:48:21;16.90;99.90
50570;DHT22;36525;49.398;7.614;2024-03-22T14:50:48;16.90;99.90
50570;DHT22;36525;49.398;7.614;2024-03-22T14:53:15;17.00;99.90
50570;DHT22;36525;49.398;7.614;2024-03-22T14:55:56;17.00;99.90
50570;DHT22;36525;49.398;7.614;2024-03-22T14:58:24;17.00;99.90
50570;DHT22;36525;49.398;7.614;2024-03-22T15:00:52;17.30;99.90
50570;DHT22;36525;49.398;7.614;2024-03-22T15:03:18;17.50;99.90
50570;DHT22;36525;49.398;7.614;2024-03-22T15:05:44;17.70;99.90
50570;DHT22;36525;49.398;7.614;2024-03-22T15:08:10;17.80;99.90
50570;DHT22;36525;49.398;7.614;2024-03-22T15:10:37;18.10;99.90
50570;DHT22;36525;49.398;7.614;2024-03-22T15:13:03;18.20;99.90
50570;DHT22;36525;49.398;7.614;2024-03-22T15:15:29;18.30;99.90
50570;DHT22;36525;49.398;7.614;2024-03-22T15:17:55;19.00;99.90
50570;DHT22;36525;49.398;7.614;2024-03-22T15:20:21;19.30;99.90
50570;DHT22;36525;49.398;7.614;2024-03-22T15:22:53;19.50;99.90
50570;DHT22;36525;49.398;7.614;2024-03-22T15:25:20;20.00;99.90
50570;DHT22;36525;49.398;7.614;2024-03-22T15:27:46;20.00;99.90
50570;DHT22;36525;49.398;7.614;2024-03-22T15:30:12;20.40;99.90
50570;DHT22;36525;49.398;7.614;2024-03-22T15:32:43;20.40;99.90